Time;durP1;ratioP1;P1;durP2;ratioP2;P2;SDS_P1;SDS_P2;PMS_P1;PMS_P2;Temp;Humidity;BMP_temperature;BMP_pressure;BME280_temperature;BME280_humidity;BME280_pressure;Samples;Min_cycle;Max_cycle;Signal;HPM_P1;HPM_P2
2021/01/12 00:02:57;;;;;;;39.18;19.67;;;;;;;-2.06;78.00;99945.16;2154958;80;22650;-71
2021/01/12 00:05:59;;;;;;;37.70;18.73;;;;;;;-2.06;77.66;99937.36;2151345;80;21118;-71
2021/01/12 00:09:01;;;;;;;37.13;16.85;;;;;;;-2.04;77.83;99943.31;2152393;80;21190;-71
2021/01/12 00:12:02;;;;;;;33.75;16.05;;;;;;;-2.02;77.50;99938.04;2150885;80;22451;-70
2021/01/12 00:15:06;;;;;;;34.90;16.35;;;;;;;-2.01;77.05;99937.93;2151751;80;21130;-72
2021/01/12 00:18:08;;;;;;;34.33;16.48;;;;;;;-1.98;77.14;99939.05;2148665;80;21125;-71
2021/01/12 00:21:09;;;;;;;32.58;16.20;;;;;;;-1.97;77.20;99934.23;2154615;80;21196;-70
2021/01/12 00:24:11;;;;;;;31.23;15.95;;;;;;;-1.93;77.30;99933.11;2155531;80;21161;-72
2021/01/12 00:27:19;;;;;;;34.95;15.68;;;;;;;-1.90;77.39;99934.23;2155908;80;21161;-77
2021/01/12 00:30:22;;;;;;;34.45;16.73;;;;;;;-1.90;77.37;99922.52;2149355;80;21547;-72
2021/01/12 00:33:24;;;;;;;35.73;17.02;;;;;;;-1.84;77.15;99916.11;2151107;80;21215;-71
2021/01/12 00:36:25;;;;;;;40.15;17.87;;;;;;;-1.79;77.19;99926.25;2149785;80;21170;-71
2021/01/12 00:39:27;;;;;;;45.23;17.30;;;;;;;-1.74;77.27;99919.02;2150840;80;21121;-71
2021/01/12 00:42:28;;;;;;;33.20;15.38;;;;;;;-1.69;77.16;99918.24;2151329;80;21125;-71
2021/01/12 00:45:30;;;;;;;29.92;14.18;;;;;;;-1.66;77.03;99905.91;2150841;80;21122;-71
2021/01/12 00:48:31;;;;;;;34.85;15.88;;;;;;;-1.66;76.32;99888.13;2153500;80;21533;-73
2021/01/12 00:51:38;;;;;;;27.85;13.98;;;;;;;-1.70;75.92;99887.50;2149538;80;21245;-71
2021/01/12 00:54:40;;;;;;;25.02;13.65;;;;;;;-1.70;76.48;99898.38;2152259;80;21206;-70
2021/01/12 00:57:41;;;;;;;23.50;12.53;;;;;;;-1.70;75.74;99894.47;2152200;80;21094;-70
2021/01/12 01:00:42;;;;;;;25.60;13.70;;;;;;;-1.69;76.08;99898.30;2154519;80;21477;-74
2021/01/12 01:03:44;;;;;;;25.60;13.15;;;;;;;-1.66;76.30;99898.54;2162993;80;21188;-71
2021/01/12 01:06:47;;;;;;;31.70;13.55;;;;;;;-1.64;75.89;99890.19;2158635;80;21065;-70
2021/01/12 01:09:49;;;;;;;25.35;12.37;;;;;;;-1.63;76.05;99889.27;2160895;80;21521;-70
2021/01/12 01:12:50;;;;;;;24.95;12.65;;;;;;;-1.60;75.85;99897.72;2161477;80;21108;-71
2021/01/12 01:15:51;;;;;;;24.45;12.43;;;;;;;-1.57;75.67;99892.80;2160594;80;21176;-71
2021/01/12 01:18:53;;;;;;;22.70;10.70;;;;;;;-1.55;75.69;99892.20;2160500;80;21105;-72
2021/01/12 01:21:54;;;;;;;19.92;11.53;;;;;;;-1.54;75.01;99880.06;2157632;80;21583;-70
2021/01/12 01:24:55;;;;;;;24.55;13.58;;;;;;;-1.54;75.40;99878.28;2106626;80;21167;-71
2021/01/12 01:27:57;;;;;;;18.62;10.72;;;;;;;-1.53;75.27;99875.22;2152768;80;22237;-71
2021/01/12 01:30:58;;;;;;;19.80;11.12;;;;;;;-1.52;75.10;99864.72;2160948;80;21149;-71
2021/01/12 01:34:00;;;;;;;19.80;10.25;;;;;;;-1.55;74.89;99864.89;2160883;80;21096;-70
2021/01/12 01:37:01;;;;;;;20.45;11.12;;;;;;;-1.54;74.79;99861.38;2157812;80;21128;-70
2021/01/12 01:40:05;;;;;;;19.27;10.40;;;;;;;-1.52;74.92;99862.13;2156991;80;21121;-70
2021/01/12 01:43:08;;;;;;;21.15;11.15;;;;;;;-1.50;74.98;99855.50;2161700;80;21496;-70
2021/01/12 01:46:09;;;;;;;19.37;11.28;;;;;;;-1.52;74.22;99855.61;2160760;80;21264;-70
2021/01/12 01:49:11;;;;;;;18.32;10.03;;;;;;;-1.50;74.35;99849.00;2159841;80;21184;-70
2021/01/12 01:52:12;;;;;;;20.37;10.63;;;;;;;-1.54;73.07;99842.33;2132030;80;21160;-70
2021/01/12 01:55:14;;;;;;;17.77;9.53;;;;;;;-1.55;74.23;99844.06;2160677;80;21105;-71
2021/01/12 01:58:15;;;;;;;17.90;10.63;;;;;;;-1.55;73.90;99840.64;2161804;80;21164;-70
2021/01/12 02:01:17;;;;;;;17.55;9.70;;;;;;;-1.56;73.48;99824.20;2163389;80;21163;-70
2021/01/12 02:04:31;;;;;;;22.87;10.30;;;;;;;-1.59;73.04;99817.41;2170241;80;21107;-71
2021/01/12 02:07:33;;;;;;;16.42;9.50;;;;;;;-1.58;73.66;99813.04;2172670;80;21119;-70
2021/01/12 02:10:43;;;;;;;17.40;9.35;;;;;;;-1.58;73.64;99810.44;2177371;80;21608;-72
2021/01/12 02:13:44;;;;;;;14.63;8.70;;;;;;;-1.57;73.64;99810.00;2165370;80;21108;-71
2021/01/12 02:16:48;;;;;;;19.27;8.78;;;;;;;-1.55;72.66;99795.09;2172740;80;21085;-73
2021/01/12 02:19:51;;;;;;;18.65;9.68;;;;;;;-1.56;72.79;99786.47;2140049;80;21174;-71
2021/01/12 02:23:16;;;;;;;18.12;9.58;;;;;;;-1.61;71.98;99776.81;2166977;80;21631;-71
2021/01/12 02:26:18;;;;;;;15.43;9.05;;;;;;;-1.59;72.77;99780.16;2149729;81;21119;-71
2021/01/12 02:29:19;;;;;;;16.12;8.93;;;;;;;-1.58;72.99;99785.72;2165518;80;21072;-72
2021/01/12 02:32:21;;;;;;;17.48;10.00;;;;;;;-1.57;73.17;99783.50;2168283;80;21168;-70
2021/01/12 02:35:26;;;;;;;13.50;8.23;;;;;;;-1.55;72.88;99788.13;2173274;80;21179;-70
2021/01/12 02:38:28;;;;;;;16.02;9.15;;;;;;;-1.52;72.91;99776.69;2165740;80;21125;-77
2021/01/12 02:41:32;;;;;;;13.50;7.95;;;;;;;-1.52;73.02;99767.14;2142448;80;21136;-71
2021/01/12 02:44:34;;;;;;;15.13;9.60;;;;;;;-1.52;72.88;99763.23;2172679;80;21118;-71
2021/01/12 02:47:36;;;;;;;14.28;9.25;;;;;;;-1.51;72.87;99754.48;2169627;80;21088;-72
2021/01/12 02:50:37;;;;;;;16.50;8.48;;;;;;;-1.52;72.30;99760.63;2168409;80;21079;-78
2021/01/12 02:53:39;;;;;;;13.95;8.15;;;;;;;-1.51;72.42;99749.28;2174284;80;21113;-70
2021/01/12 02:56:40;;;;;;;13.72;7.70;;;;;;;-1.48;72.71;99743.05;2170335;80;21164;-71
2021/01/12 02:59:42;;;;;;;13.43;8.28;;;;;;;-1.49;72.51;99738.75;2170674;80;21760;-70
2021/01/12 03:02:43;;;;;;;13.85;8.55;;;;;;;-1.49;72.70;99730.95;2151140;80;21149;-71
2021/01/12 03:05:44;;;;;;;16.77;8.85;;;;;;;-1.50;72.60;99722.78;2142780;81;21612;-71
2021/01/12 03:08:46;;;;;;;14.07;8.45;;;;;;;-1.48;72.61;99719.16;2141979;81;21126;-70
2021/01/12 03:11:52;;;;;;;17.00;8.40;;;;;;;-1.48;72.20;99706.61;2144690;81;21224;-72
2021/01/12 03:14:53;;;;;;;13.80;8.10;;;;;;;-1.49;72.12;99701.88;2143410;81;21121;-71
2021/01/12 03:17:55;;;;;;;15.80;7.65;;;;;;;-1.49;71.98;99696.67;2144442;81;21201;-72
2021/01/12 03:20:58;;;;;;;12.60;7.62;;;;;;;-1.51;72.22;99689.90;2142627;81;21632;-71
2021/01/12 03:23:59;;;;;;;12.00;7.80;;;;;;;-1.53;71.87;99680.87;2144192;81;21193;-71
2021/01/12 03:27:01;;;;;;;12.78;7.75;;;;;;;-1.55;72.10;99676.70;2146557;81;21132;-71
2021/01/12 03:30:06;;;;;;;14.75;7.67;;;;;;;-1.56;72.12;99676.35;2146680;81;21201;-71
2021/01/12 03:33:07;;;;;;;16.85;8.43;;;;;;;-1.58;72.11;99680.34;2123374;81;21129;-71
2021/01/12 03:36:09;;;;;;;19.95;10.23;;;;;;;-1.58;72.05;99672.53;2138061;81;21521;-71
2021/01/12 03:39:11;;;;;;;17.57;8.90;;;;;;;-1.58;71.94;99669.93;2145414;81;21993;-77
2021/01/12 03:42:12;;;;;;;11.83;7.50;;;;;;;-1.60;71.91;99655.74;2147864;81;21125;-72
2021/01/12 03:45:14;;;;;;;14.33;7.47;;;;;;;-1.60;71.99;99656.21;2142862;81;21164;-71
2021/01/12 03:48:16;;;;;;;14.10;7.65;;;;;;;-1.61;71.99;99649.32;2145432;81;21102;-74
2021/01/12 03:51:19;;;;;;;10.35;6.83;;;;;;;-1.62;71.37;99643.77;2138704;81;21139;-71
2021/01/12 03:54:21;;;;;;;11.75;6.87;;;;;;;-1.62;71.53;99640.69;2142408;81;21531;-71
2021/01/12 03:57:22;;;;;;;12.40;7.30;;;;;;;-1.62;71.88;99641.98;2141117;81;21083;-71
2021/01/12 04:00:24;;;;;;;12.78;7.80;;;;;;;-1.62;71.63;99632.88;2142532;81;21604;-71
2021/01/12 04:03:28;;;;;;;14.45;7.90;;;;;;;-1.62;71.90;99630.76;2153322;80;21193;-71
2021/01/12 04:06:31;;;;;;;12.40;7.55;;;;;;;-1.62;71.21;99620.34;2152649;80;21193;-71
2021/01/12 04:09:33;;;;;;;12.82;7.55;;;;;;;-1.61;71.60;99620.70;2152432;80;21133;-71
2021/01/12 04:12:34;;;;;;;12.93;7.58;;;;;;;-1.62;71.74;99622.48;2152733;80;21143;-70
2021/01/12 04:15:36;;;;;;;11.88;7.60;;;;;;;-1.59;71.76;99618.37;2152195;80;21133;-78
2021/01/12 04:18:37;;;;;;;14.15;8.30;;;;;;;-1.59;71.71;99610.56;2153341;80;21559;-72
2021/01/12 04:21:39;;;;;;;15.90;7.65;;;;;;;-1.56;71.79;99605.63;2151959;80;21165;-71
2021/01/12 04:24:40;;;;;;;13.95;8.03;;;;;;;-1.54;71.69;99592.05;2148355;80;21173;-71
2021/01/12 04:27:42;;;;;;;14.03;8.45;;;;;;;-1.51;71.30;99579.31;2152976;80;21182;-70
2021/01/12 04:30:43;;;;;;;16.35;8.78;;;;;;;-1.53;71.52;99582.00;2151227;80;21119;-78
2021/01/12 04:33:45;;;;;;;14.03;8.93;;;;;;;-1.52;71.77;99593.23;2158538;80;21157;-73
2021/01/12 04:36:46;;;;;;;15.93;7.95;;;;;;;-1.52;71.59;99588.89;2150282;80;21782;-72
2021/01/12 04:39:48;;;;;;;16.07;8.95;;;;;;;-1.51;71.72;99586.64;2151355;81;21167;-71
2021/01/12 04:42:49;;;;;;;15.20;9.18;;;;;;;-1.51;71.61;99585.34;2150792;80;21142;-72
2021/01/12 04:45:51;;;;;;;11.88;7.72;;;;;;;-1.52;71.71;99584.13;2153523;80;21118;-71
2021/01/12 04:48:52;;;;;;;15.18;8.65;;;;;;;-1.53;71.59;99588.51;2152760;80;21083;-75
2021/01/12 04:51:54;;;;;;;16.07;8.90;;;;;;;-1.52;71.84;99574.58;2153137;80;21196;-74
2021/01/12 04:55:03;;;;;;;13.65;7.92;;;;;;;-1.50;71.85;99576.59;2149267;80;21574;-72
2021/01/12 04:58:04;;;;;;;13.40;7.42;;;;;;;-1.50;71.79;99564.05;2147324;80;21087;-72
2021/01/12 05:01:18;;;;;;;12.63;7.97;;;;;;;-1.50;71.83;99551.87;2153357;80;21097;-71
2021/01/12 05:04:20;;;;;;;14.25;8.60;;;;;;;-1.52;71.47;99547.26;2150336;80;21141;-78
2021/01/12 05:07:21;;;;;;;13.85;7.60;;;;;;;-1.54;71.68;99543.92;2149048;80;21099;-71
2021/01/12 05:10:23;;;;;;;14.07;8.03;;;;;;;-1.55;71.55;99529.22;2150965;80;21143;-71
2021/01/12 05:13:27;;;;;;;14.28;7.67;;;;;;;-1.55;71.47;99533.60;2151849;80;21158;-70
2021/01/12 05:16:28;;;;;;;18.32;8.40;;;;;;;-1.53;71.72;99531.27;2151162;80;21559;-71
2021/01/12 05:19:35;;;;;;;16.73;8.08;;;;;;;-1.53;71.75;99527.36;2154593;80;21179;-74
2021/01/12 05:22:40;;;;;;;17.15;8.63;;;;;;;-1.53;71.72;99522.16;2153066;80;21138;-77
2021/01/12 05:25:44;;;;;;;13.88;7.97;;;;;;;-1.52;71.83;99521.68;2145902;80;21150;-81
2021/01/12 05:28:47;;;;;;;16.20;8.95;;;;;;;-1.52;71.82;99509.53;2152203;80;21145;-71
2021/01/12 05:31:50;;;;;;;16.45;9.28;;;;;;;-1.53;71.67;99502.64;2150300;80;21123;-76
2021/01/12 05:34:54;;;;;;;15.80;8.30;;;;;;;-1.55;71.79;99500.60;2126150;80;21157;-71
2021/01/12 05:38:06;;;;;;;15.93;8.88;;;;;;;-1.53;71.70;99486.20;2157896;80;21149;-70
2021/01/12 05:41:08;;;;;;;12.78;7.53;;;;;;;-1.53;71.61;99483.59;2152878;80;21182;-71
2021/01/12 05:44:16;;;;;;;13.05;7.28;;;;;;;-1.54;71.55;99465.86;2149981;80;21798;-71
2021/01/12 05:47:17;;;;;;;15.85;7.85;;;;;;;-1.56;71.08;99458.62;2151669;80;21073;-69
2021/01/12 05:50:21;;;;;;;13.08;7.22;;;;;;;-1.58;71.15;99463.09;2147633;80;21510;-70
2021/01/12 05:53:26;;;;;;;14.28;8.05;;;;;;;-1.60;71.01;99456.70;2143708;80;21131;-69
2021/01/12 05:56:27;;;;;;;13.70;7.45;;;;;;;-1.61;70.85;99447.69;2153306;80;21178;-70
2021/01/12 05:59:35;;;;;;;30.45;9.80;;;;;;;-1.61;71.00;99443.79;2156273;80;21117;-70
2021/01/12 06:02:42;;;;;;;15.83;8.10;;;;;;;-1.62;71.01;99435.16;2149863;80;21128;-71
2021/01/12 06:05:46;;;;;;;11.75;7.50;;;;;;;-1.62;70.59;99439.06;2146194;80;21193;-71
2021/01/12 06:08:50;;;;;;;14.80;7.40;;;;;;;-1.63;70.67;99426.17;2145039;80;21130;-72
2021/01/12 06:11:55;;;;;;;17.05;9.18;;;;;;;-1.63;70.47;99427.48;2148465;80;21176;-75
2021/01/12 06:14:59;;;;;;;13.85;7.83;;;;;;;-1.64;70.30;99420.59;2147360;80;21186;-75
2021/01/12 06:18:05;;;;;;;14.00;7.28;;;;;;;-1.62;70.64;99420.02;2147807;80;21656;-71
2021/01/12 06:21:13;;;;;;;25.10;12.68;;;;;;;-1.64;70.60;99421.41;2147644;80;21191;-74
2021/01/12 06:24:19;;;;;;;29.27;14.98;;;;;;;-1.67;70.28;99411.70;2121637;80;21720;-82
2021/01/12 06:27:28;;;;;;;19.62;8.58;;;;;;;-1.70;70.42;99419.25;2148884;80;21194;-75
2021/01/12 06:30:30;;;;;;;20.12;9.88;;;;;;;-1.70;70.50;99424.45;2148240;80;21164;-71
2021/01/12 06:33:33;;;;;;;19.98;9.15;;;;;;;-1.70;70.61;99424.92;2150965;80;21160;-76
2021/01/12 06:36:38;;;;;;;20.35;8.43;;;;;;;-1.69;70.55;99416.17;2150312;80;21227;-73
2021/01/12 06:39:53;;;;;;;22.93;8.75;;;;;;;-1.65;70.68;99421.54;2149568;80;21685;-73
2021/01/12 06:42:58;;;;;;;20.45;9.20;;;;;;;-1.62;70.46;99421.33;2151062;80;21095;-72
2021/01/12 06:46:00;;;;;;;16.75;7.80;;;;;;;-1.59;70.52;99422.41;2152299;80;21498;-72
2021/01/12 06:49:04;;;;;;;18.25;8.65;;;;;;;-1.52;70.46;99425.41;2148604;80;21107;-72
2021/01/12 06:52:11;;;;;;;20.45;8.13;;;;;;;-1.45;70.41;99414.95;2151538;81;21121;-70
2021/01/12 06:55:16;;;;;;;14.07;7.73;;;;;;;-1.41;70.36;99422.44;2150115;80;21143;-73
2021/01/12 06:58:18;;;;;;;16.65;8.38;;;;;;;-1.33;69.61;99410.16;2149375;80;21232;-70
2021/01/12 07:01:22;;;;;;;15.63;8.25;;;;;;;-1.24;70.00;99411.28;2150232;80;21561;-71
2021/01/12 07:04:29;;;;;;;15.78;8.30;;;;;;;-1.17;70.11;99414.66;2157872;80;21101;-71
2021/01/12 07:07:35;;;;;;;13.20;7.47;;;;;;;-1.11;70.02;99406.05;2138768;80;21595;-70
2021/01/12 07:10:43;;;;;;;15.60;7.03;;;;;;;-1.04;70.02;99404.20;2155814;80;21140;-71
2021/01/12 07:13:44;;;;;;;13.55;7.85;;;;;;;-0.98;69.94;99397.72;2156684;80;21107;-70
2021/01/12 07:16:47;;;;;;;11.03;7.10;;;;;;;-0.93;69.96;99391.24;2153457;80;21149;-72
2021/01/12 07:19:48;;;;;;;13.13;7.40;;;;;;;-0.89;69.70;99389.72;2153191;80;21112;-71
2021/01/12 07:23:02;;;;;;;13.45;7.83;;;;;;;-0.85;69.96;99385.92;2154513;80;21097;-71
2021/01/12 07:26:05;;;;;;;11.88;6.97;;;;;;;-0.82;69.86;99377.89;2158243;80;21122;-70
2021/01/12 07:29:08;;;;;;;11.65;7.03;;;;;;;-0.79;70.00;99378.52;2157371;80;21154;-71
2021/01/12 07:32:10;;;;;;;13.50;7.17;;;;;;;-0.74;69.85;99371.64;2159938;80;21204;-71
2021/01/12 07:35:11;;;;;;;12.55;6.87;;;;;;;-0.70;70.10;99371.31;2130501;80;21163;-72
2021/01/12 07:38:24;;;;;;;13.58;7.35;;;;;;;-0.65;70.11;99365.75;2158328;80;21160;-70
2021/01/12 07:41:26;;;;;;;20.60;8.88;;;;;;;-0.60;70.17;99358.91;2162711;80;21171;-72
2021/01/12 07:44:27;;;;;;;12.85;7.75;;;;;;;-0.58;69.94;99357.02;2160996;80;21128;-71
2021/01/12 07:47:30;;;;;;;14.73;8.10;;;;;;;-0.57;69.93;99352.16;2130093;80;21584;-71
2021/01/12 07:50:31;;;;;;;28.05;11.18;;;;;;;-0.56;69.80;99349.45;2163405;80;21161;-70
2021/01/12 07:53:33;;;;;;;53.25;23.32;;;;;;;-0.55;70.06;99348.50;2158243;80;21160;-75
2021/01/12 07:56:36;;;;;;;83.33;34.55;;;;;;;-0.52;69.94;99342.23;2156583;80;21134;-74
2021/01/12 07:59:39;;;;;;;24.30;17.12;;;;;;;-0.51;69.69;99336.05;2118742;82;21196;-71
2021/01/12 08:02:47;;;;;;;13.10;7.87;;;;;;;-0.51;69.75;99327.79;2159789;80;21169;-71
2021/01/12 08:06:00;;;;;;;12.50;7.30;;;;;;;-0.48;69.76;99334.07;2147795;80;21105;-71
2021/01/12 08:09:02;;;;;;;13.60;7.20;;;;;;;-0.48;69.46;99325.40;2155854;80;21125;-70
2021/01/12 08:12:06;;;;;;;14.55;7.30;;;;;;;-0.47;69.75;99319.26;2153000;80;21210;-72
2021/01/12 08:15:13;;;;;;;13.65;7.20;;;;;;;-0.42;69.66;99320.19;2151597;80;21153;-83
2021/01/12 08:18:18;;;;;;;14.65;7.70;;;;;;;-0.43;69.83;99317.24;2149705;80;21226;-82
2021/01/12 08:21:19;;;;;;;13.98;7.90;;;;;;;-0.39;70.03;99309.08;2150627;80;21569;-77
2021/01/12 08:24:26;;;;;;;18.75;9.18;;;;;;;-0.33;69.89;99311.70;2145772;80;21170;-73
2021/01/12 08:27:27;;;;;;;13.75;7.75;;;;;;;-0.30;69.80;99308.37;2148493;81;21201;-70
2021/01/12 08:30:32;;;;;;;12.00;6.92;;;;;;;-0.24;70.04;99301.86;2156019;80;21119;-71
2021/01/12 08:33:38;;;;;;;13.98;7.70;;;;;;;-0.19;70.12;99290.61;2146935;80;21491;-73
2021/01/12 08:36:40;;;;;;;13.10;7.45;;;;;;;-0.14;70.29;99281.96;2147184;80;21173;-69
2021/01/12 08:39:43;;;;;;;18.07;8.20;;;;;;;-0.10;70.10;99288.58;2125209;80;21139;-75
2021/01/12 08:42:48;;;;;;;11.85;6.85;;;;;;;-0.06;70.37;99275.67;2146494;80;21185;-69
2021/01/12 08:45:49;;;;;;;10.23;6.08;;;;;;;-0.03;70.21;99279.80;2154822;80;21098;-74
2021/01/12 08:48:51;;;;;;;14.00;6.92;;;;;;;-0.02;70.39;99281.47;2152173;80;21145;-69
2021/01/12 08:51:55;;;;;;;13.28;6.97;;;;;;;0.02;70.51;99276.84;2151490;80;21180;-70
2021/01/12 08:54:56;;;;;;;11.43;6.62;;;;;;;0.04;70.67;99277.08;2153714;81;21618;-69
2021/01/12 08:58:01;;;;;;;13.80;7.25;;;;;;;0.10;70.45;99273.16;2152233;80;21093;-70
2021/01/12 09:01:04;;;;;;;11.25;6.80;;;;;;;0.12;70.60;99275.18;2148547;80;21170;-69
2021/01/12 09:04:08;;;;;;;12.28;7.15;;;;;;;0.17;70.72;99271.71;2141403;80;21119;-69
2021/01/12 09:07:10;;;;;;;13.30;7.40;;;;;;;0.23;70.84;99258.20;2139577;81;21573;-70
2021/01/12 09:10:12;;;;;;;14.55;6.80;;;;;;;0.29;70.92;99266.02;2144750;81;21160;-69
2021/01/12 09:13:14;;;;;;;12.47;7.92;;;;;;;0.33;70.98;99268.24;2143332;81;21103;-70
2021/01/12 09:16:19;;;;;;;10.90;6.87;;;;;;;0.36;70.99;99260.64;2142389;81;21125;-69
2021/01/12 09:19:20;;;;;;;13.08;7.70;;;;;;;0.38;71.04;99258.27;2145424;81;21209;-71
2021/01/12 09:22:22;;;;;;;10.75;6.83;;;;;;;0.41;70.91;99254.59;2142059;81;21106;-70
2021/01/12 09:25:24;;;;;;;15.30;8.03;;;;;;;0.41;70.95;99248.89;2146667;81;21125;-76
2021/01/12 09:28:28;;;;;;;13.62;7.33;;;;;;;0.40;71.02;99240.72;2141887;81;21161;-70
2021/01/12 09:31:29;;;;;;;13.18;8.00;;;;;;;0.41;71.12;99242.36;2143914;81;21079;-69
2021/01/12 09:34:31;;;;;;;14.78;8.05;;;;;;;0.43;71.33;99236.55;2143884;81;21127;-69
2021/01/12 09:37:33;;;;;;;17.00;9.00;;;;;;;0.45;71.26;99236.41;2126824;81;21109;-69
2021/01/12 09:40:35;;;;;;;13.50;7.45;;;;;;;0.47;71.33;99232.39;2136729;81;21056;-69
2021/01/12 09:43:37;;;;;;;13.62;7.55;;;;;;;0.50;71.44;99226.44;2143257;81;21109;-70
2021/01/12 09:46:38;;;;;;;13.50;7.83;;;;;;;0.52;71.49;99219.80;2140880;81;21149;-70
2021/01/12 09:49:40;;;;;;;16.50;8.30;;;;;;;0.53;71.38;99211.00;2141469;81;21201;-70
2021/01/12 09:52:41;;;;;;;15.13;8.40;;;;;;;0.53;71.33;99203.99;2148103;81;21184;-69
2021/01/12 09:55:44;;;;;;;13.65;7.67;;;;;;;0.53;71.27;99198.77;2140876;81;21531;-69
2021/01/12 09:58:46;;;;;;;13.22;8.43;;;;;;;0.52;71.26;99193.21;2153085;81;21674;-69
2021/01/12 10:01:56;;;;;;;16.48;8.73;;;;;;;0.56;71.51;99184.64;2138829;81;21177;-69
2021/01/12 10:04:58;;;;;;;15.32;8.90;;;;;;;0.57;71.29;99183.23;2142298;81;21679;-72
2021/01/12 10:07:59;;;;;;;14.58;7.78;;;;;;;0.59;71.39;99173.50;2145228;81;21154;-71
2021/01/12 10:11:03;;;;;;;16.57;9.00;;;;;;;0.61;70.97;99171.56;2143847;81;21569;-75
2021/01/12 10:14:04;;;;;;;15.00;8.95;;;;;;;0.61;71.11;99161.12;2142490;81;21190;-69
2021/01/12 10:17:06;;;;;;;19.60;9.05;;;;;;;0.65;71.22;99162.54;2144148;81;21118;-70
2021/01/12 10:20:08;;;;;;;15.48;8.73;;;;;;;0.64;70.98;99150.91;2142047;81;21266;-71
2021/01/12 10:23:09;;;;;;;14.03;8.30;;;;;;;0.67;70.99;99153.26;2143418;81;21189;-70
2021/01/12 10:26:16;;;;;;;13.48;8.28;;;;;;;0.69;71.00;99146.13;2139030;81;21594;-75
2021/01/12 10:29:18;;;;;;;13.53;7.87;;;;;;;0.70;70.64;99143.86;2144226;81;21220;-70
2021/01/12 10:32:20;;;;;;;14.40;8.50;;;;;;;0.70;70.92;99141.25;2141774;81;21067;-70
2021/01/12 10:35:21;;;;;;;13.28;8.35;;;;;;;0.73;70.50;99133.64;2145425;81;21131;-72
2021/01/12 10:38:22;;;;;;;21.57;11.93;;;;;;;0.71;70.72;99135.09;2143050;81;21640;-75
2021/01/12 10:41:24;;;;;;;16.15;8.38;;;;;;;0.74;70.96;99120.95;2139745;81;21170;-70
2021/01/12 10:44:25;;;;;;;16.52;9.30;;;;;;;0.76;70.94;99122.94;2142612;82;21113;-70
2021/01/12 10:47:30;;;;;;;16.55;8.78;;;;;;;0.78;70.79;99115.33;2144753;81;21182;-71
2021/01/12 10:50:32;;;;;;;14.55;7.35;;;;;;;0.77;70.77;99112.38;2139650;81;21217;-73
2021/01/12 10:53:34;;;;;;;17.12;8.63;;;;;;;0.76;70.66;99096.83;2146831;81;21218;-72
2021/01/12 10:56:37;;;;;;;13.10;7.75;;;;;;;0.76;70.75;99100.29;2146440;81;21126;-70
2021/01/12 10:59:39;;;;;;;14.30;7.92;;;;;;;0.75;70.45;99097.80;2147160;82;21074;-70
2021/01/12 11:02:41;;;;;;;16.82;9.58;;;;;;;0.76;70.67;99092.91;2140953;81;21092;-70
2021/01/12 11:05:43;;;;;;;13.50;7.67;;;;;;;0.77;70.45;99083.66;2159505;80;21147;-70
2021/01/12 11:08:44;;;;;;;11.03;6.62;;;;;;;0.80;70.81;99078.66;2160162;80;21197;-70
2021/01/12 11:11:50;;;;;;;12.10;7.00;;;;;;;0.83;70.62;99073.16;2160755;80;22113;-69
2021/01/12 11:14:53;;;;;;;11.90;7.05;;;;;;;0.84;70.65;99074.81;2153806;80;21182;-77
2021/01/12 11:17:55;;;;;;;11.18;7.08;;;;;;;0.86;70.70;99067.20;2159143;80;21145;-70
2021/01/12 11:20:56;;;;;;;11.25;7.47;;;;;;;0.86;70.74;99062.45;2163148;80;21266;-70
2021/01/12 11:23:58;;;;;;;11.12;6.75;;;;;;;0.87;70.77;99057.12;2163325;80;21200;-70
2021/01/12 11:27:06;;;;;;;10.90;7.22;;;;;;;0.87;70.77;99054.50;2160329;80;21507;-71
2021/01/12 11:30:09;;;;;;;10.90;6.97;;;;;;;0.87;71.04;99058.88;2159182;80;21187;-72
2021/01/12 11:33:11;;;;;;;17.12;8.10;;;;;;;0.83;71.30;99060.11;2161145;80;21152;-69
2021/01/12 11:36:14;;;;;;;16.30;8.58;;;;;;;0.80;71.62;99051.23;2156369;80;21600;-71
2021/01/12 11:39:19;;;;;;;14.00;8.08;;;;;;;0.78;71.97;99047.92;2159114;80;21137;-70
2021/01/12 11:42:21;;;;;;;16.57;8.78;;;;;;;0.72;72.28;99047.14;2164491;80;21125;-70
2021/01/12 11:45:22;;;;;;;14.23;8.05;;;;;;;0.65;72.66;99043.74;2158814;80;21130;-71
2021/01/12 11:48:24;;;;;;;14.70;8.35;;;;;;;0.62;73.08;99044.45;2164328;80;21848;-70
2021/01/12 11:51:41;;;;;;;15.68;9.33;;;;;;;0.57;73.35;99042.25;2160402;80;21107;-76
2021/01/12 11:54:43;;;;;;;15.23;9.25;;;;;;;0.53;73.64;99037.41;2157933;80;21591;-70
2021/01/12 11:57:44;;;;;;;13.65;8.45;;;;;;;0.51;73.82;99028.88;2165306;80;21159;-70
2021/01/12 12:00:49;;;;;;;14.15;8.78;;;;;;;0.52;73.96;99027.94;2158166;80;21086;-70
2021/01/12 12:03:51;;;;;;;22.07;11.83;;;;;;;0.51;74.21;99017.98;2166673;80;21132;-73
2021/01/12 12:07:03;;;;;;;17.98;10.08;;;;;;;0.52;74.41;99009.18;2169053;80;21081;-70
2021/01/12 12:10:06;;;;;;;23.03;13.00;;;;;;;0.54;74.40;99008.58;2169111;80;21101;-72
2021/01/12 12:13:08;;;;;;;17.05;9.00;;;;;;;0.58;74.63;99003.92;2177197;80;21083;-70
2021/01/12 12:16:14;;;;;;;15.53;8.65;;;;;;;0.57;74.55;99003.09;2170449;80;21513;-70
2021/01/12 12:19:19;;;;;;;20.00;11.08;;;;;;;0.58;74.47;99003.44;2170941;80;21492;-70
2021/01/12 12:22:20;;;;;;;15.63;9.13;;;;;;;0.62;74.58;98999.62;2173383;80;21164;-69
2021/01/12 12:25:22;;;;;;;17.12;9.28;;;;;;;0.65;74.61;98999.84;2171733;80;21512;-69
2021/01/12 12:28:23;;;;;;;13.45;8.65;;;;;;;0.65;74.71;98991.53;2168323;80;21169;-70
2021/01/12 12:31:25;;;;;;;15.40;8.55;;;;;;;0.64;74.82;98993.77;2171773;80;21181;-69
2021/01/12 12:34:26;;;;;;;14.15;8.25;;;;;;;0.63;74.95;98987.39;2172952;80;21131;-72
2021/01/12 12:37:27;;;;;;;13.60;7.47;;;;;;;0.61;75.26;98982.77;2176431;80;21152;-75
2021/01/12 12:40:29;;;;;;;12.23;7.05;;;;;;;0.56;75.42;98975.81;2170137;80;21619;-79
2021/01/12 12:43:30;;;;;;;13.72;8.20;;;;;;;0.53;75.64;98974.28;2172659;80;21182;-72
2021/01/12 12:46:32;;;;;;;14.70;9.15;;;;;;;0.51;75.89;98974.91;2169594;80;22969;-77
2021/01/12 12:49:33;;;;;;;14.20;9.03;;;;;;;0.52;76.38;98969.20;2148286;80;21136;-73
2021/01/12 12:52:35;;;;;;;14.63;8.98;;;;;;;0.51;76.54;98963.17;2169126;80;21730;-69
2021/01/12 12:55:40;;;;;;;19.07;9.80;;;;;;;0.47;76.53;98963.55;2175912;80;21513;-70
2021/01/12 12:58:43;;;;;;;15.58;8.33;;;;;;;0.47;76.74;98957.02;2169586;80;21147;-69
2021/01/12 13:01:49;;;;;;;17.52;9.00;;;;;;;0.47;76.87;98960.94;2174083;80;21144;-72
2021/01/12 13:04:51;;;;;;;18.65;8.80;;;;;;;0.48;77.00;98957.36;2166284;80;21133;-71
2021/01/12 13:07:53;;;;;;;18.85;10.68;;;;;;;0.46;77.09;98955.38;2149794;80;21542;-70
2021/01/12 13:10:54;;;;;;;17.12;9.45;;;;;;;0.44;77.32;98947.67;2121190;82;21110;-76
2021/01/12 13:13:57;;;;;;;19.62;9.83;;;;;;;0.36;77.37;98952.23;2149808;80;21539;-71
2021/01/12 13:16:59;;;;;;;18.52;9.98;;;;;;;0.35;77.53;98941.94;2154898;80;21210;-70
2021/01/12 13:20:06;;;;;;;14.60;9.00;;;;;;;0.39;77.69;98945.92;2153812;80;21129;-71
2021/01/12 13:23:09;;;;;;;19.82;12.23;;;;;;;0.46;77.79;98947.55;2152485;80;21154;-70
2021/01/12 13:26:12;;;;;;;20.08;10.23;;;;;;;0.47;77.89;98939.57;2153789;80;21641;-69
2021/01/12 13:29:14;;;;;;;22.25;12.18;;;;;;;0.48;77.95;98937.78;2146079;80;21177;-70
2021/01/12 13:32:16;;;;;;;20.27;11.25;;;;;;;0.45;78.16;98936.26;2150832;80;21147;-76
2021/01/12 13:35:21;;;;;;;17.02;9.75;;;;;;;0.36;78.24;98936.56;2148106;80;21551;-74
2021/01/12 13:38:23;;;;;;;17.67;9.80;;;;;;;0.34;78.51;98924.16;2147778;80;21162;-70
2021/01/12 13:41:24;;;;;;;19.85;13.83;;;;;;;0.32;79.10;98920.84;2148771;80;21172;-69
2021/01/12 13:44:25;;;;;;;17.77;10.20;;;;;;;0.23;78.93;98913.80;2147478;80;21070;-69
2021/01/12 13:47:28;;;;;;;18.75;9.50;;;;;;;0.17;79.45;98909.93;2149339;80;21392;-69
2021/01/12 13:50:32;;;;;;;19.25;9.50;;;;;;;0.12;79.44;98904.27;2148033;80;21160;-73
2021/01/12 13:53:34;;;;;;;14.45;9.20;;;;;;;0.12;79.70;98900.84;2125029;81;21134;-71
2021/01/12 13:56:41;;;;;;;17.52;10.03;;;;;;;0.09;79.66;98902.41;2142099;81;21161;-75
2021/01/12 13:59:46;;;;;;;18.35;10.55;;;;;;;0.09;79.92;98903.72;2135368;81;21137;-73
2021/01/12 14:02:48;;;;;;;19.45;10.45;;;;;;;0.09;80.53;98891.97;2141660;81;21161;-70
2021/01/12 14:05:49;;;;;;;19.12;10.40;;;;;;;0.04;80.97;98891.05;2119781;82;21589;-77
2021/01/12 14:08:52;;;;;;;21.57;12.05;;;;;;;-0.05;81.26;98893.14;2148714;81;21195;-77
2021/01/12 14:11:54;;;;;;;19.95;11.40;;;;;;;-0.13;81.35;98883.83;2148250;81;21149;-71
2021/01/12 14:14:55;;;;;;;16.60;11.00;;;;;;;-0.19;81.80;98882.55;2143318;81;21576;-74